Time;durP1;ratioP1;P1;durP2;ratioP2;P2;SDS_P1;SDS_P2;PMS_P1;PMS_P2;Temp;Humidity;BMP_temperature;BMP_pressure;BME280_temperature;BME280_humidity;BME280_pressure;Samples;Min_cycle;Max_cycle;Signal;HPM_P1;HPM_P2
2021/11/07 00:00:22;;;;;;;;;;;;;;;0.55;91.35;97665.53;30001;983;1880;-57
2021/11/07 00:03:04;;;;;;;;;;;;;;;0.49;91.60;97670.91;30001;982;1881;-58
2021/11/07 00:03:43;;;;;;;;;;;;;;;0.44;91.78;97668.84;30001;983;1880;-60
2021/11/07 00:05:24;;;;;;;;;;;;;;;0.40;92.15;97670.31;30001;983;1875;-58
2021/11/07 00:06:21;;;;;;;;;;;;;;;0.40;92.12;97672.16;30001;983;1880;-60
2021/11/07 00:08:54;;;;;;;;;;;;;;;0.35;92.42;97680.00;30001;982;1880;-56
2021/11/07 00:09:33;;;;;;;;;;;;;;;0.36;92.51;97682.41;30001;982;1863;-56
2021/11/07 00:10:16;;;;;;;;;;;;;;;0.37;92.56;97678.72;30001;982;1876;-56
2021/11/07 00:10:50;;;;;;;;;;;;;;;0.37;92.53;97684.06;30001;982;1880;-57
2021/11/07 00:11:25;;;;;;;;;;;;;;;0.38;92.41;97675.03;30001;983;1880;-59
2021/11/07 00:11:59;;;;;;;;;;;;;;;0.37;92.63;97681.41;30001;983;1880;-56
2021/11/07 00:12:36;;;;;;;;;;;;;;;0.38;92.50;97685.72;30001;983;1880;-56
2021/11/07 00:13:24;;;;;;;;;;;;;;;0.37;92.61;97684.06;30001;983;1880;-58
2021/11/07 00:13:55;;;;;;;;;;;;;;;0.35;92.51;97683.44;30001;983;1880;-58
2021/11/07 00:14:27;;;;;;;;;;;;;;;0.35;92.58;97680.00;30001;983;1862;-57
2021/11/07 00:14:59;;;;;;;;;;;;;;;0.35;92.65;97683.44;30001;983;1876;-58
2021/11/07 00:15:30;;;;;;;;;;;;;;;0.36;92.80;97681.59;30001;983;1880;-58
2021/11/07 00:16:10;;;;;;;;;;;;;;;0.35;92.85;97674.66;30001;982;1880;-58
2021/11/07 00:16:43;;;;;;;;;;;;;;;0.33;92.92;97674.84;30001;982;1880;-58
2021/11/07 00:17:15;;;;;;;;;;;;;;;0.33;92.88;97666.84;30001;982;1880;-58
2021/11/07 00:17:51;;;;;;;;;;;;;;;0.34;92.85;97663.16;30001;982;1880;-58
2021/11/07 00:18:31;;;;;;;;;;;;;;;0.34;92.76;97657.81;30001;982;1880;-58
2021/11/07 00:19:15;;;;;;;;;;;;;;;0.36;92.83;97655.72;30001;983;1880;-57
2021/11/07 00:19:50;;;;;;;;;;;;;;;0.40;93.00;97659.63;30001;977;1877;-57
2021/11/07 00:20:32;;;;;;;;;;;;;;;0.41;92.88;97658.59;30001;983;1875;-58
2021/11/07 00:21:21;;;;;;;;;;;;;;;0.42;92.72;97646.06;30001;983;1880;-58
2021/11/07 00:22:02;;;;;;;;;;;;;;;0.43;92.78;97653.87;30001;983;1880;-58
2021/11/07 00:23:55;;;;;;;;;;;;;;;0.43;92.51;97661.87;30001;983;1880;-58
2021/11/07 00:24:48;;;;;;;;;;;;;;;0.39;92.36;97660.66;30001;982;1880;-57
2021/11/07 00:27:31;;;;;;;;;;;;;;;0.40;92.73;97648.94;30001;983;1880;-56
2021/11/07 00:28:06;;;;;;;;;;;;;;;0.41;92.64;97647.91;30001;983;1880;-58
2021/11/07 00:28:48;;;;;;;;;;;;;;;0.42;92.61;97649.56;30001;983;1880;-57
2021/11/07 00:29:24;;;;;;;;;;;;;;;0.43;92.84;97647.72;30001;983;1880;-57
2021/11/07 00:30:13;;;;;;;;;;;;;;;0.44;92.71;97649.34;30001;983;1880;-57
2021/11/07 00:31:51;;;;;;;;;;;;;;;0.42;92.65;97654.91;30001;982;1876;-59
2021/11/07 00:33:46;;;;;;;;;;;;;;;0.44;92.75;97658.19;30001;982;1880;-57
2021/11/07 00:34:39;;;;;;;;;;;;;;;0.52;92.85;97649.94;30001;983;1880;-57
2021/11/07 00:36:19;;;;;;;;;;;;;;;0.45;92.25;97665.16;30001;974;1878;-57
2021/11/07 00:36:54;;;;;;;;;;;;;;;0.51;92.00;97669.66;30001;983;1858;-57
2021/11/07 00:37:33;;;;;;;;;;;;;;;0.50;91.82;97678.69;30001;983;1880;-58
2021/11/07 00:38:12;;;;;;;;;;;;;;;0.50;91.68;97673.38;30001;982;1880;-58
2021/11/07 00:38:51;;;;;;;;;;;;;;;0.46;91.63;97677.47;30001;982;1880;-58
2021/11/07 00:39:45;;;;;;;;;;;;;;;0.42;91.83;97676.25;30001;982;1880;-59
2021/11/07 00:40:39;;;;;;;;;;;;;;;0.41;92.03;97679.94;30001;982;1863;-58
2021/11/07 00:42:18;;;;;;;;;;;;;;;0.40;92.27;97670.31;30001;983;1880;-57
2021/11/07 00:42:56;;;;;;;;;;;;;;;0.40;92.23;97672.16;30001;983;1880;-58
2021/11/07 00:43:39;;;;;;;;;;;;;;;0.40;92.25;97667.63;30001;983;1880;-58
2021/11/07 00:44:16;;;;;;;;;;;;;;;0.42;92.41;97665.56;30001;983;1880;-57
2021/11/07 00:45:01;;;;;;;;;;;;;;;0.44;92.55;97668.84;30001;983;1863;-57
2021/11/07 00:46:41;;;;;;;;;;;;;;;0.44;92.36;97676.87;30001;982;1881;-57
2021/11/07 00:48:21;;;;;;;;;;;;;;;0.41;92.32;97669.28;30001;982;1880;-57
2021/11/07 00:49:15;;;;;;;;;;;;;;;0.41;92.64;97679.94;30001;983;1879;-58
2021/11/07 00:49:51;;;;;;;;;;;;;;;0.41;92.55;97674.59;30001;983;1880;-57
2021/11/07 00:50:26;;;;;;;;;;;;;;;0.41;92.69;97674.59;30001;983;1862;-57
2021/11/07 00:52:07;;;;;;;;;;;;;;;0.45;92.68;97686.50;30001;983;1880;-57
2021/11/07 00:52:51;;;;;;;;;;;;;;;0.46;92.57;97677.47;30001;983;1863;-56
2021/11/07 00:53:46;;;;;;;;;;;;;;;0.45;92.82;97675.84;30001;982;1876;-57
2021/11/07 00:54:24;;;;;;;;;;;;;;;0.45;92.84;97675.84;30001;982;1880;-57
2021/11/07 00:55:51;;;;;;;;;;;;;;;0.47;92.65;97673.78;30001;982;1880;-58
2021/11/07 00:56:44;;;;;;;;;;;;;;;0.50;92.66;97672.53;30001;983;1880;-57
2021/11/07 00:57:20;;;;;;;;;;;;;;;0.49;92.58;97662.88;30001;983;1862;-57
2021/11/07 00:58:05;;;;;;;;;;;;;;;0.54;92.47;97663.91;30001;983;1875;-58
2021/11/07 00:58:44;;;;;;;;;;;;;;;0.57;92.12;97647.47;30001;983;1880;-57
2021/11/07 01:01:13;;;;;;;;;;;;;;;0.52;91.74;97663.28;30001;982;1858;-58
2021/11/07 01:01:52;;;;;;;;;;;;;;;0.56;92.01;97671.72;30001;982;1880;-59
2021/11/07 01:02:31;;;;;;;;;;;;;;;0.62;91.82;97666.34;30001;982;1880;-57
2021/11/07 01:03:10;;;;;;;;;;;;;;;0.60;91.37;97673.75;30001;983;1880;-59
2021/11/07 01:03:41;;;;;;;;;;;;;;;0.58;91.18;97680.34;30001;983;1880;-57
2021/11/07 01:04:13;;;;;;;;;;;;;;;0.56;91.32;97671.72;30001;983;1880;-59
2021/11/07 01:04:47;;;;;;;;;;;;;;;0.56;91.34;97671.72;30001;983;1862;-59
2021/11/07 01:05:22;;;;;;;;;;;;;;;0.56;91.34;97675.19;30001;983;1875;-58
2021/11/07 01:05:54;;;;;;;;;;;;;;;0.52;91.16;97676.66;30001;983;1880;-58
2021/11/07 01:06:25;;;;;;;;;;;;;;;0.53;91.47;97672.12;30001;983;1880;-57
2021/11/07 01:06:56;;;;;;;;;;;;;;;0.52;91.21;97671.31;30001;983;1880;-58
2021/11/07 01:07:27;;;;;;;;;;;;;;;0.50;91.02;97673.38;30001;983;1880;-58
2021/11/07 01:07:58;;;;;;;;;;;;;;;0.47;91.00;97676.44;30001;982;1880;-58
2021/11/07 01:08:29;;;;;;;;;;;;;;;0.44;91.03;97684.87;30001;982;1789;-57
2021/11/07 01:09:00;;;;;;;;;;;;;;;0.44;90.86;97676.87;30001;982;1863;-59
2021/11/07 01:09:31;;;;;;;;;;;;;;;0.42;91.17;97681.59;30001;982;1876;-57
2021/11/07 01:10:02;;;;;;;;;;;;;;;0.44;91.35;97676.87;30001;982;1881;-58
2021/11/07 01:10:34;;;;;;;;;;;;;;;0.44;91.44;97682.22;30001;983;1879;-57
2021/11/07 01:11:05;;;;;;;;;;;;;;;0.42;91.07;97676.25;30001;983;1880;-58
2021/11/07 01:11:37;;;;;;;;;;;;;;;0.39;91.02;97682.00;30001;983;1880;-57
2021/11/07 01:12:09;;;;;;;;;;;;;;;0.37;91.11;97678.72;30001;983;1880;-58
2021/11/07 01:12:40;;;;;;;;;;;;;;;0.37;91.15;97683.25;30001;983;1880;-59
2021/11/07 01:13:11;;;;;;;;;;;;;;;0.34;91.33;97671.16;30001;983;1880;-58
2021/11/07 01:13:42;;;;;;;;;;;;;;;0.35;91.43;97670.09;30001;983;1880;-58
2021/11/07 01:14:13;;;;;;;;;;;;;;;0.36;91.38;97670.94;30001;983;1862;-57
2021/11/07 01:14:44;;;;;;;;;;;;;;;0.32;91.38;97665.22;30001;983;1876;-57
2021/11/07 01:15:15;;;;;;;;;;;;;;;0.35;91.65;97667.44;30001;983;1880;-57
2021/11/07 01:15:46;;;;;;;;;;;;;;;0.36;91.37;97669.06;30001;982;1880;-57
2021/11/07 01:16:17;;;;;;;;;;;;;;;0.33;91.45;97667.66;30001;982;1880;-57
2021/11/07 01:16:49;;;;;;;;;;;;;;;0.33;91.46;97661.50;30001;982;1880;-57
2021/11/07 01:17:19;;;;;;;;;;;;;;;0.32;91.51;97663.38;30001;982;1880;-57
2021/11/07 01:17:51;;;;;;;;;;;;;;;0.33;91.48;97661.50;30001;982;1880;-57
2021/11/07 01:18:22;;;;;;;;;;;;;;;0.39;91.68;97660.66;30001;983;1862;-57
2021/11/07 01:18:52;;;;;;;;;;;;;;;0.41;91.56;97661.25;30001;983;1875;-57
2021/11/07 01:19:23;;;;;;;;;;;;;;;0.40;91.25;97656.94;30001;983;1862;-57
2021/11/07 01:19:55;;;;;;;;;;;;;;;0.44;91.45;97652.00;30001;983;1858;-58
2021/11/07 01:20:30;;;;;;;;;;;;;;;0.47;91.32;97657.75;30001;983;1862;-57
2021/11/07 01:21:01;;;;;;;;;;;;;;;0.47;91.24;97641.75;30001;983;1875;-57
2021/11/07 01:21:36;;;;;;;;;;;;;;;0.47;91.20;97635.59;30001;983;1880;-57
2021/11/07 01:22:10;;;;;;;;;;;;;;;0.46;91.20;97633.94;30001;983;1880;-57
2021/11/07 01:23:40;;;;;;;;;;;;;;;0.45;91.45;97627.78;30001;982;1880;-58
2021/11/07 01:24:27;;;;;;;;;;;;;;;0.44;91.41;97620.78;30001;982;1880;-58
2021/11/07 01:25:01;;;;;;;;;;;;;;;0.45;91.76;97622.44;30001;982;1880;-57
2021/11/07 01:25:36;;;;;;;;;;;;;;;0.44;91.57;97626.12;30001;983;1862;-57
2021/11/07 01:26:30;;;;;;;;;;;;;;;0.42;91.75;97625.53;30001;983;1875;-57
2021/11/07 01:28:05;;;;;;;;;;;;;;;0.45;91.44;97617.09;30001;964;1877;-57
2021/11/07 01:28:46;;;;;;;;;;;;;;;0.44;91.61;97620.78;30001;983;1880;-58
2021/11/07 01:29:23;;;;;;;;;;;;;;;0.44;91.49;97612.78;30001;983;1880;-57
2021/11/07 01:29:57;;;;;;;;;;;;;;;0.45;91.55;97611.75;30001;983;1863;-57
2021/11/07 01:30:31;;;;;;;;;;;;;;;0.47;91.75;97615.03;30001;983;1876;-60
2021/11/07 01:31:02;;;;;;;;;;;;;;;0.49;91.49;97607.63;30001;982;1880;-57
2021/11/07 01:31:34;;;;;;;;;;;;;;;0.49;91.53;97612.16;30001;982;1880;-58
2021/11/07 01:32:06;;;;;;;;;;;;;;;0.49;91.60;97607.63;30001;982;1880;-58
2021/11/07 01:32:44;;;;;;;;;;;;;;;0.50;91.59;97603.13;30001;982;1880;-57
2021/11/07 01:33:26;;;;;;;;;;;;;;;0.51;91.58;97605.56;30001;983;1880;-58
2021/11/07 01:33:59;;;;;;;;;;;;;;;0.51;91.45;97605.56;30001;983;1880;-57
2021/11/07 01:34:46;;;;;;;;;;;;;;;0.54;91.57;97599.00;30001;983;1880;-57
2021/11/07 01:37:14;;;;;;;;;;;;;;;0.58;91.26;97593.03;30001;983;1862;-57
2021/11/07 01:38:41;;;;;;;;;;;;;;;0.61;91.74;97579.25;30001;982;1880;-56
2021/11/07 01:39:18;;;;;;;;;;;;;;;0.63;91.74;97587.88;30001;982;1880;-60
2021/11/07 01:39:56;;;;;;;;;;;;;;;0.65;91.80;97585.81;30001;982;1880;-57
2021/11/07 01:40:30;;;;;;;;;;;;;;;0.75;91.63;97587.19;30001;982;1863;-58
2021/11/07 01:41:17;;;;;;;;;;;;;;;0.75;91.60;97584.50;30001;983;1875;-57
2021/11/07 01:42:56;;;;;;;;;;;;;;;0.77;91.37;97603.81;30001;983;1880;-57
2021/11/07 01:43:27;;;;;;;;;;;;;;;0.75;91.42;97600.53;30001;983;1880;-57
2021/11/07 01:43:59;;;;;;;;;;;;;;;0.73;91.46;97598.06;30001;983;1880;-57
2021/11/07 01:44:44;;;;;;;;;;;;;;;0.75;91.54;97600.53;30001;983;1880;-56
2021/11/07 01:45:26;;;;;;;;;;;;;;;0.75;91.26;97606.69;30001;982;1880;-57
2021/11/07 01:46:11;;;;;;;;;;;;;;;0.78;91.12;97610.78;30001;982;1863;-58
2021/11/07 01:46:47;;;;;;;;;;;;;;;0.79;91.16;97604.41;30001;982;1876;-57
2021/11/07 01:47:18;;;;;;;;;;;;;;;0.79;91.17;97597.22;30001;982;1880;-57
2021/11/07 01:47:53;;;;;;;;;;;;;;;0.81;91.08;97594.34;30001;982;1880;-58
2021/11/07 01:48:27;;;;;;;;;;;;;;;0.82;90.97;97595.97;30001;983;1880;-57
2021/11/07 01:49:50;;;;;;;;;;;;;;;0.86;91.21;97589.19;30001;983;1880;-56
2021/11/07 01:50:21;;;;;;;;;;;;;;;0.87;91.19;97593.50;30001;983;1862;-56
2021/11/07 01:50:55;;;;;;;;;;;;;;;0.89;91.16;97588.75;30001;983;1876;-58
2021/11/07 01:51:27;;;;;;;;;;;;;;;0.93;91.17;97590.78;30001;983;1862;-56
2021/11/07 01:52:01;;;;;;;;;;;;;;;0.94;91.10;97589.75;30001;983;1876;-56
2021/11/07 01:52:38;;;;;;;;;;;;;;;0.93;90.97;97588.12;30001;982;1880;-56
2021/11/07 01:53:19;;;;;;;;;;;;;;;0.92;90.71;97596.34;30001;982;1880;-57
2021/11/07 01:53:54;;;;;;;;;;;;;;;0.92;90.77;97591.81;30001;982;1880;-56
2021/11/07 01:54:33;;;;;;;;;;;;;;;0.92;90.89;97591.00;30001;982;1880;-57
2021/11/07 01:55:05;;;;;;;;;;;;;;;0.93;91.00;97595.31;30001;982;1880;-57
2021/11/07 01:55:39;;;;;;;;;;;;;;;0.92;90.85;97596.34;30001;982;1880;-57
2021/11/07 01:56:11;;;;;;;;;;;;;;;0.91;90.78;97589.38;30001;983;1880;-56
2021/11/07 01:56:42;;;;;;;;;;;;;;;0.93;90.66;97592.66;30001;983;1862;-57
2021/11/07 01:57:18;;;;;;;;;;;;;;;0.95;90.70;97595.91;30001;983;1875;-57
2021/11/07 01:57:49;;;;;;;;;;;;;;;0.98;90.61;97595.50;30001;983;1880;-57
2021/11/07 01:58:20;;;;;;;;;;;;;;;0.98;90.71;97590.16;30001;983;1862;-58
2021/11/07 01:58:51;;;;;;;;;;;;;;;0.98;90.47;97590.16;30001;983;1858;-57
2021/11/07 01:59:22;;;;;;;;;;;;;;;0.98;90.53;97590.16;30001;983;1880;-57
2021/11/07 01:59:56;;;;;;;;;;;;;;;0.96;90.36;97586.88;30001;983;1863;-58
2021/11/07 02:00:28;;;;;;;;;;;;;;;0.96;90.49;97586.88;30001;982;1876;-57
2021/11/07 02:00:59;;;;;;;;;;;;;;;0.96;90.43;97597.56;30001;982;1880;-57
2021/11/07 02:01:30;;;;;;;;;;;;;;;0.93;90.46;97598.81;30001;982;1880;-56
2021/11/07 02:02:01;;;;;;;;;;;;;;;0.93;90.22;97597.97;30001;982;1880;-57
2021/11/07 02:02:34;;;;;;;;;;;;;;;0.93;90.23;97603.34;30001;982;1761;-57
2021/11/07 02:03:05;;;;;;;;;;;;;;;0.92;90.17;97596.34;30001;982;1876;-57
2021/11/07 02:03:37;;;;;;;;;;;;;;;0.89;90.29;97600.25;30001;983;1880;-58
2021/11/07 02:04:07;;;;;;;;;;;;;;;0.87;90.20;97598.84;30001;983;1880;-57
2021/11/07 02:04:39;;;;;;;;;;;;;;;0.86;90.33;97599.87;30001;983;1880;-58
2021/11/07 02:05:10;;;;;;;;;;;;;;;0.85;90.42;97600.91;30001;983;1880;-56
2021/11/07 02:05:41;;;;;;;;;;;;;;;0.83;90.51;97602.97;30001;966;1897;-57
2021/11/07 02:06:12;;;;;;;;;;;;;;;0.83;90.44;97597.63;30001;983;1880;-59
2021/11/07 02:06:43;;;;;;;;;;;;;;;0.83;90.48;97597.63;30001;983;1863;-57
2021/11/07 02:07:14;;;;;;;;;;;;;;;0.84;90.59;97605.41;30001;983;1876;-56
2021/11/07 02:07:45;;;;;;;;;;;;;;;0.83;90.48;97595.78;30001;982;1880;-57
2021/11/07 02:08:17;;;;;;;;;;;;;;;0.81;90.34;97600.50;30001;982;1863;-63
2021/11/07 02:08:48;;;;;;;;;;;;;;;0.83;90.48;97602.97;30001;982;1876;-57
2021/11/07 02:09:19;;;;;;;;;;;;;;;0.83;90.33;97600.28;30001;982;1880;-58
2021/11/07 02:09:50;;;;;;;;;;;;;;;0.84;90.42;97604.59;30001;982;1880;-57
2021/11/07 02:10:21;;;;;;;;;;;;;;;0.83;90.38;97593.09;30001;983;1880;-56
2021/11/07 02:10:54;;;;;;;;;;;;;;;0.86;90.62;97597.19;30001;983;1880;-58
2021/11/07 02:11:25;;;;;;;;;;;;;;;0.87;90.34;97588.16;30001;983;1880;-57
2021/11/07 02:11:56;;;;;;;;;;;;;;;0.87;90.24;97577.47;30001;983;1880;-57
2021/11/07 02:12:27;;;;;;;;;;;;;;;0.87;90.25;97577.47;30001;983;1880;-57
2021/11/07 02:12:58;;;;;;;;;;;;;;;0.88;90.25;97574.56;30001;983;1862;-57
2021/11/07 02:13:29;;;;;;;;;;;;;;;0.89;90.19;97578.06;30001;983;1876;-56
2021/11/07 02:14:01;;;;;;;;;;;;;;;0.89;90.05;97575.41;30001;983;1880;-57
2021/11/07 02:14:32;;;;;;;;;;;;;;;0.89;90.04;97575.41;30001;983;1880;-58
2021/11/07 02:15:06;;;;;;;;;;;;;;;0.93;90.11;97571.28;30001;982;1880;-57
2021/11/07 02:15:37;;;;;;;;;;;;;;;0.92;89.86;97577.63;30001;982;1863;-57
2021/11/07 02:16:08;;;;;;;;;;;;;;;0.90;89.81;97566.34;30001;982;1876;-57
2021/11/07 02:16:39;;;;;;;;;;;;;;;0.89;89.84;97570.06;30001;982;1880;-57
2021/11/07 02:17:10;;;;;;;;;;;;;;;0.90;89.89;97569.03;30001;982;1880;-57
2021/11/07 02:17:42;;;;;;;;;;;;;;;0.90;89.90;97571.69;30001;983;1880;-57
2021/11/07 02:18:15;;;;;;;;;;;;;;;0.89;89.86;97570.06;30001;983;1879;-56
2021/11/07 02:18:46;;;;;;;;;;;;;;;0.87;89.84;97561.44;30001;983;1880;-57
2021/11/07 02:19:18;;;;;;;;;;;;;;;0.86;89.96;97560.63;30001;983;1862;-57
2021/11/07 02:19:50;;;;;;;;;;;;;;;0.86;90.07;97565.12;30001;983;1875;-57
2021/11/07 02:20:30;;;;;;;;;;;;;;;0.88;89.94;97557.72;30001;983;1862;-58
2021/11/07 02:21:04;;;;;;;;;;;;;;;0.88;89.93;97557.72;30001;983;1876;-56
2021/11/07 02:21:35;;;;;;;;;;;;;;;0.92;90.14;97557.09;30001;983;1880;-58
2021/11/07 02:22:06;;;;;;;;;;;;;;;0.92;90.02;97553.59;30001;983;1880;-57
2021/11/07 02:22:38;;;;;;;;;;;;;;;0.88;89.78;97552.38;30001;982;1880;-57
2021/11/07 02:23:12;;;;;;;;;;;;;;;0.88;89.63;97549.72;30001;982;1863;-57
2021/11/07 02:23:43;;;;;;;;;;;;;;;0.87;89.97;97548.06;30001;982;1876;-56
2021/11/07 02:24:16;;;;;;;;;;;;;;;0.88;90.05;97547.03;30001;982;1880;-57
2021/11/07 02:24:47;;;;;;;;;;;;;;;0.87;89.85;97545.41;30001;982;1880;-57
2021/11/07 02:25:18;;;;;;;;;;;;;;;0.88;89.94;97544.38;30001;983;1880;-56
2021/11/07 02:25:52;;;;;;;;;;;;;;;0.87;90.20;97538.22;30001;983;1880;-57
2021/11/07 02:26:23;;;;;;;;;;;;;;;0.88;90.12;97539.03;30001;983;1879;-58
2021/11/07 02:26:55;;;;;;;;;;;;;;;0.88;90.05;97536.34;30001;983;1880;-58
2021/11/07 02:27:26;;;;;;;;;;;;;;;0.88;90.07;97541.69;30001;983;1880;-57
2021/11/07 02:27:57;;;;;;;;;;;;;;;0.89;90.15;97532.66;30001;983;1880;-57
2021/11/07 02:28:32;;;;;;;;;;;;;;;0.89;89.93;97532.66;30001;983;1862;-57
2021/11/07 02:29:02;;;;;;;;;;;;;;;0.89;90.28;97533.47;30001;983;1876;-57
2021/11/07 02:29:36;;;;;;;;;;;;;;;0.87;89.98;97529.38;30001;983;1880;-57
2021/11/07 02:30:10;;;;;;;;;;;;;;;0.87;90.01;97526.69;30001;982;1880;-57
2021/11/07 02:30:41;;;;;;;;;;;;;;;0.85;89.99;97521.56;30001;982;1863;-57
2021/11/07 02:31:14;;;;;;;;;;;;;;;0.85;90.40;97531.44;30001;982;1876;-57
2021/11/07 02:31:45;;;;;;;;;;;;;;;0.87;90.12;97529.38;30001;982;1880;-58
2021/11/07 02:32:16;;;;;;;;;;;;;;;0.89;90.40;97527.31;30001;982;1880;-58
2021/11/07 02:32:48;;;;;;;;;;;;;;;0.90;90.32;97520.94;30001;986;1876;-57
2021/11/07 02:33:20;;;;;;;;;;;;;;;0.89;90.10;97532.66;30001;983;1880;-57
2021/11/07 02:33:50;;;;;;;;;;;;;;;0.87;90.14;97524.03;30001;983;1879;-57
2021/11/07 02:34:22;;;;;;;;;;;;;;;0.87;90.16;97527.53;30001;983;1880;-57
2021/11/07 02:34:53;;;;;;;;;;;;;;;0.91;90.18;97533.25;30001;983;1880;-56
2021/11/07 02:35:26;;;;;;;;;;;;;;;0.93;89.94;97532.00;30001;983;1880;-57
2021/11/07 02:36:02;;;;;;;;;;;;;;;0.96;89.69;97533.44;30001;983;1862;-57
2021/11/07 02:36:33;;;;;;;;;;;;;;;0.96;89.44;97538.78;30001;983;1858;-57
2021/11/07 02:37:04;;;;;;;;;;;;;;;0.93;89.63;97540.03;30001;982;1880;-58
2021/11/07 02:37:35;;;;;;;;;;;;;;;0.91;89.77;97542.09;30001;982;1880;-56
2021/11/07 02:38:06;;;;;;;;;;;;;;;0.91;89.71;97538.59;30001;982;1880;-58
2021/11/07 02:38:37;;;;;;;;;;;;;;;0.91;89.80;97541.28;30001;986;1880;-58
2021/11/07 02:39:09;;;;;;;;;;;;;;;0.87;89.78;97543.56;30001;982;1880;-57
2021/11/07 02:39:40;;;;;;;;;;;;;;;0.84;89.75;97540.50;30001;982;1880;-56
2021/11/07 02:40:11;;;;;;;;;;;;;;;0.86;89.91;97543.75;30001;983;1880;-57
2021/11/07 02:40:43;;;;;;;;;;;;;;;0.87;89.86;97535.53;30001;983;1880;-57
2021/11/07 02:41:13;;;;;;;;;;;;;;;0.87;89.79;97537.38;30001;983;1862;-57
2021/11/07 02:41:45;;;;;;;;;;;;;;;0.86;89.96;97539.25;30001;983;1875;-57
2021/11/07 02:42:16;;;;;;;;;;;;;;;0.87;89.84;97540.06;30001;983;1880;-57
2021/11/07 02:42:48;;;;;;;;;;;;;;;0.86;89.79;97538.41;30001;983;1880;-57
2021/11/07 02:43:19;;;;;;;;;;;;;;;0.85;89.89;97536.78;30001;983;1880;-56
2021/11/07 02:43:51;;;;;;;;;;;;;;;0.84;89.79;97541.31;30001;983;1880;-57
2021/11/07 02:44:29;;;;;;;;;;;;;;;0.87;89.82;97542.72;30001;983;1880;-57
2021/11/07 02:45:00;;;;;;;;;;;;;;;0.86;89.76;97541.91;30001;982;1880;-57
2021/11/07 02:45:31;;;;;;;;;;;;;;;0.87;89.52;97540.06;30001;982;1863;-58
2021/11/07 02:46:02;;;;;;;;;;;;;;;0.88;89.71;97536.34;30001;982;1858;-58
2021/11/07 02:46:33;;;;;;;;;;;;;;;0.88;89.46;97536.34;30001;982;1880;-57
2021/11/07 02:47:06;;;;;;;;;;;;;;;0.86;89.40;97538.41;30001;982;1880;-56
2021/11/07 02:47:36;;;;;;;;;;;;;;;0.84;89.33;97541.31;30001;982;1863;-57
2021/11/07 02:48:07;;;;;;;;;;;;;;;0.82;89.56;97546.03;30001;983;1875;-57
2021/11/07 02:48:38;;;;;;;;;;;;;;;0.82;89.44;97543.38;30001;983;1880;-57
2021/11/07 02:49:09;;;;;;;;;;;;;;;0.80;89.56;97539.28;30001;983;1880;-58
2021/11/07 02:49:41;;;;;;;;;;;;;;;0.83;89.62;97539.66;30001;983;1880;-58
2021/11/07 02:50:14;;;;;;;;;;;;;;;0.89;89.45;97544.16;30001;983;1880;-58
2021/11/07 02:50:45;;;;;;;;;;;;;;;0.90;89.27;97544.97;30001;983;1880;-57
2021/11/07 02:51:16;;;;;;;;;;;;;;;0.89;89.28;97540.66;30001;983;1863;-58
2021/11/07 02:51:47;;;;;;;;;;;;;;;0.90;89.16;97544.97;30001;983;1876;-57
2021/11/07 02:52:18;;;;;;;;;;;;;;;0.90;88.94;97555.66;30001;982;1880;-57
2021/11/07 02:52:49;;;;;;;;;;;;;;;0.88;89.19;97541.69;30001;982;1863;-58
2021/11/07 02:53:20;;;;;;;;;;;;;;;0.89;89.39;97546.00;30001;982;1876;-57
2021/11/07 02:53:52;;;;;;;;;;;;;;;0.88;89.20;97549.72;30001;986;1880;-57
2021/11/07 02:54:23;;;;;;;;;;;;;;;0.86;89.26;97538.41;30001;982;1880;-57
2021/11/07 02:54:54;;;;;;;;;;;;;;;0.86;89.38;97549.09;30001;982;1880;-57
2021/11/07 02:55:26;;;;;;;;;;;;;;;0.86;89.51;97546.44;30001;983;1880;-57
2021/11/07 02:55:57;;;;;;;;;;;;;;;0.85;89.20;97544.78;30001;983;1880;-57
2021/11/07 02:56:27;;;;;;;;;;;;;;;0.83;89.61;97538.84;30001;983;1880;-57
2021/11/07 02:56:59;;;;;;;;;;;;;;;0.80;89.44;97547.28;30001;983;1880;-57
2021/11/07 02:57:30;;;;;;;;;;;;;;;0.77;89.46;97545.88;30001;983;1862;-57
2021/11/07 02:58:01;;;;;;;;;;;;;;;0.75;89.86;97542.59;30001;983;1876;-57
2021/11/07 02:58:33;;;;;;;;;;;;;;;0.75;89.86;97545.25;30001;983;1880;-57
2021/11/07 02:59:04;;;;;;;;;;;;;;;0.73;89.90;97544.66;30001;983;1880;-57
2021/11/07 02:59:38;;;;;;;;;;;;;;;0.72;89.87;97543.00;30001;982;1880;-57
2021/11/07 03:00:10;;;;;;;;;;;;;;;0.72;90.22;97542.19;30001;982;1880;-57
2021/11/07 03:00:41;;;;;;;;;;;;;;;0.71;90.18;97545.91;30001;982;1880;-57
2021/11/07 03:01:12;;;;;;;;;;;;;;;0.70;90.45;97552.28;30001;982;1880;-57
2021/11/07 03:01:43;;;;;;;;;;;;;;;0.71;90.37;97559.25;30001;982;1880;-57
2021/11/07 03:02:14;;;;;;;;;;;;;;;0.69;90.48;97564.03;30001;982;1881;-57
2021/11/07 03:02:46;;;;;;;;;;;;;;;0.66;90.54;97560.75;30001;982;1863;-57
2021/11/07 03:03:17;;;;;;;;;;;;;;;0.66;90.63;97566.09;30001;983;1875;-57
2021/11/07 03:03:48;;;;;;;;;;;;;;;0.65;90.75;97564.44;30001;983;1880;-57
2021/11/07 03:04:19;;;;;;;;;;;;;;;0.66;90.74;97563.41;30001;983;1880;-58
2021/11/07 03:04:50;;;;;;;;;;;;;;;0.65;90.88;97569.78;30001;983;1880;-57
2021/11/07 03:05:21;;;;;;;;;;;;;;;0.66;90.86;97566.09;30001;983;1880;-57
2021/11/07 03:05:51;;;;;;;;;;;;;;;0.65;90.86;97567.13;30001;983;1862;-57
2021/11/07 03:06:22;;;;;;;;;;;;;;;0.66;90.98;97554.56;30001;983;1876;-57
2021/11/07 03:06:53;;;;;;;;;;;;;;;0.69;90.90;97564.03;30001;983;1785;-59
2021/11/07 03:07:24;;;;;;;;;;;;;;;0.68;90.95;97567.72;30001;982;1880;-56
2021/11/07 03:07:55;;;;;;;;;;;;;;;0.69;90.92;97569.34;30001;982;1880;-57
2021/11/07 03:08:27;;;;;;;;;;;;;;;0.70;90.93;97570.97;30001;982;1880;-57
2021/11/07 03:08:58;;;;;;;;;;;;;;;0.68;91.10;97568.53;30001;982;1880;-58
2021/11/07 03:09:30;;;;;;;;;;;;;;;0.70;90.98;97568.28;30001;982;1863;-57
2021/11/07 03:10:01;;;;;;;;;;;;;;;0.73;91.19;97567.88;30001;983;1875;-57
2021/11/07 03:10:32;;;;;;;;;;;;;;;0.74;90.97;97572.19;30001;983;1880;-57
2021/11/07 03:11:03;;;;;;;;;;;;;;;0.74;91.04;97567.66;30001;983;1880;-57
2021/11/07 03:11:42;;;;;;;;;;;;;;;0.74;90.83;97561.50;30001;983;1880;-58
2021/11/07 03:12:13;;;;;;;;;;;;;;;0.74;91.19;97566.84;30001;983;1880;-57
2021/11/07 03:12:46;;;;;;;;;;;;;;;0.74;91.19;97566.84;30001;983;1862;-56
2021/11/07 03:13:19;;;;;;;;;;;;;;;0.74;91.15;97565.00;30001;983;1876;-57
2021/11/07 03:13:50;;;;;;;;;;;;;;;0.74;91.24;97561.50;30001;983;1880;-58
2021/11/07 03:14:23;;;;;;;;;;;;;;;0.73;91.42;97560.69;30001;983;1863;-56
2021/11/07 03:14:53;;;;;;;;;;;;;;;0.74;91.33;97570.34;30001;982;1876;-57
2021/11/07 03:15:24;;;;;;;;;;;;;;;0.73;91.32;97557.19;30001;982;1880;-56
2021/11/07 03:15:56;;;;;;;;;;;;;;;0.74;91.31;97566.84;30001;982;1880;-57
2021/11/07 03:16:27;;;;;;;;;;;;;;;0.75;91.42;97563.13;30001;982;1880;-58
2021/11/07 03:16:59;;;;;;;;;;;;;;;0.75;91.20;97563.97;30001;982;1880;-57
2021/11/07 03:17:30;;;;;;;;;;;;;;;0.76;91.48;97575.47;30001;983;1880;-57
2021/11/07 03:18:01;;;;;;;;;;;;;;;0.76;91.33;97565.59;30001;983;1862;-57
2021/11/07 03:18:35;;;;;;;;;;;;;;;0.76;91.40;97570.94;30001;983;1875;-57
2021/11/07 03:19:06;;;;;;;;;;;;;;;0.77;91.26;97574.44;30001;983;1880;-57
2021/11/07 03:19:37;;;;;;;;;;;;;;;0.77;91.55;97571.75;30001;983;1880;-57
2021/11/07 03:20:09;;;;;;;;;;;;;;;0.77;91.35;97569.91;30001;983;1880;-57
2021/11/07 03:20:40;;;;;;;;;;;;;;;0.79;91.46;97569.69;30001;983;1880;-57
2021/11/07 03:21:16;;;;;;;;;;;;;;;0.80;91.46;97571.34;30001;983;1880;-57
2021/11/07 03:21:50;;;;;;;;;;;;;;;0.81;91.40;97572.97;30001;983;1862;-59
2021/11/07 03:22:22;;;;;;;;;;;;;;;0.83;91.48;97570.91;30001;982;1876;-58
2021/11/07 03:22:54;;;;;;;;;;;;;;;0.80;91.15;97566.81;30001;982;1880;-57
2021/11/07 03:23:25;;;;;;;;;;;;;;;0.81;91.36;97570.31;30001;982;1880;-58
2021/11/07 03:23:55;;;;;;;;;;;;;;;0.81;91.35;97572.97;30001;982;1880;-57
2021/11/07 03:24:27;;;;;;;;;;;;;;;0.85;91.43;97566.16;30001;982;1880;-57
2021/11/07 03:24:59;;;;;;;;;;;;;;;0.87;91.18;97562.25;30001;983;1880;-56
2021/11/07 03:25:30;;;;;;;;;;;;;;;0.92;91.10;97558.94;30001;983;1880;-57
2021/11/07 03:26:06;;;;;;;;;;;;;;;0.92;90.91;97564.28;30001;983;1880;-57
2021/11/07 03:26:38;;;;;;;;;;;;;;;0.92;90.58;97554.41;30001;983;1862;-57
2021/11/07 03:27:18;;;;;;;;;;;;;;;0.91;90.51;97549.28;30001;983;1875;-56
2021/11/07 03:27:50;;;;;;;;;;;;;;;0.86;90.62;97549.94;30001;983;1880;-56
2021/11/07 03:28:21;;;;;;;;;;;;;;;0.85;90.69;97552.81;30001;983;1880;-57
2021/11/07 03:28:56;;;;;;;;;;;;;;;0.83;90.81;97552.22;30001;983;1880;-57
2021/11/07 03:29:33;;;;;;;;;;;;;;;0.83;90.93;97554.87;30001;983;1880;-57
2021/11/07 03:30:13;;;;;;;;;;;;;;;0.82;90.94;97543.38;30001;982;1863;-57